createdAt,value
2022-07-29T00:05:00.969Z,0.32
2022-07-29T00:10:04.868Z,0.17
2022-07-29T00:15:07.004Z,0.40
2022-07-29T00:20:09.237Z,0.30
2022-07-29T00:25:10.944Z,0.30
2022-07-29T00:30:13.180Z,0.50
2022-07-29T00:35:33.626Z,0.40
2022-07-29T00:40:35.287Z,0.30
2022-07-29T00:45:36.972Z,0.30
2022-07-29T00:50:39.441Z,0.47
2022-07-29T00:55:41.148Z,0.30
2022-07-29T01:00:43.681Z,0.30
2022-07-29T01:05:49.656Z,0.40
2022-07-29T01:10:54.053Z,0.40
2022-07-29T01:16:00.644Z,0.63
2022-07-29T01:21:44.714Z,0.43
2022-07-29T01:26:59.117Z,0.30
2022-07-29T01:32:27.909Z,0.60
2022-07-29T01:37:40.582Z,0.40
2022-07-29T01:42:51.064Z,0.40
2022-07-29T01:48:09.761Z,0.30
2022-07-29T01:53:13.137Z,0.40
2022-07-29T01:58:18.407Z,0.35
2022-07-29T02:03:23.502Z,0.40
2022-07-29T02:08:26.047Z,0.50
2022-07-29T02:13:29.827Z,0.40
2022-07-29T02:18:32.624Z,0.73
2022-07-29T02:23:45.189Z,0.40
2022-07-29T02:28:57.165Z,0.40
2022-07-29T02:34:00.381Z,0.30
2022-07-29T02:39:04.224Z,0.40
2022-07-29T02:44:19.621Z,0.45
2022-07-29T02:49:49.467Z,0.60
2022-07-29T02:55:08.309Z,0.40
2022-07-29T03:00:11.979Z,0.40
2022-07-29T03:05:20.632Z,0.40
2022-07-29T03:10:22.667Z,0.60
2022-07-29T03:15:25.178Z,0.50
2022-07-29T03:20:27.509Z,0.45
2022-07-29T03:25:29.318Z,0.30
2022-07-29T03:30:31.639Z,0.50
2022-07-29T03:35:33.892Z,0.93
2022-07-29T03:40:41.097Z,0.38
2022-07-29T03:45:45.640Z,0.70
2022-07-29T03:50:47.355Z,0.60
2022-07-29T03:55:54.278Z,0.45
2022-07-29T04:00:56.427Z,0.50
2022-07-29T04:06:09.244Z,0.50
2022-07-29T04:11:11.064Z,0.50
2022-07-29T04:16:12.706Z,0.50
2022-07-29T04:21:14.341Z,0.40
2022-07-29T04:26:16.857Z,0.30
2022-07-29T04:31:21.269Z,0.80
2022-07-29T04:36:29.551Z,0.70
2022-07-29T04:41:33.426Z,0.47
2022-07-29T04:46:35.789Z,0.32
2022-07-29T04:51:37.530Z,0.40
2022-07-29T04:56:39.226Z,0.47
2022-07-29T05:01:40.940Z,0.45
2022-07-29T05:06:42.587Z,0.50
2022-07-29T05:11:44.247Z,0.50
2022-07-29T05:16:45.943Z,0.75
2022-07-29T05:21:47.584Z,0.55
2022-07-29T05:26:49.331Z,0.80
2022-07-29T05:31:52.748Z,1.08
2022-07-29T05:36:54.456Z,0.52
2022-07-29T05:41:56.173Z,0.60
2022-07-29T05:46:57.799Z,0.50
2022-07-29T05:51:59.459Z,0.80
2022-07-29T05:57:01.079Z,0.50
2022-07-29T06:02:02.710Z,0.60
2022-07-29T06:07:05.035Z,0.40
2022-07-29T06:12:06.835Z,1.25
2022-07-29T06:17:08.530Z,0.50
2022-07-29T06:22:10.183Z,0.60
2022-07-29T06:27:12.404Z,0.50
2022-07-29T06:32:14.253Z,0.45
2022-07-29T06:37:16.028Z,0.55
2022-07-29T06:42:17.720Z,0.50
2022-07-29T06:47:19.325Z,0.50
2022-07-29T06:52:21.210Z,0.57
2022-07-29T06:57:23.336Z,0.60
2022-07-29T07:02:25.005Z,0.95
2022-07-29T07:07:27.137Z,0.60
2022-07-29T07:12:28.821Z,0.40
2022-07-29T07:17:30.550Z,0.60
2022-07-29T07:22:35.712Z,0.50
2022-07-29T07:27:40.635Z,0.73
2022-07-29T07:32:42.506Z,0.60
2022-07-29T07:37:44.274Z,0.70
2022-07-29T07:42:45.919Z,0.45
2022-07-29T07:47:47.675Z,0.40
2022-07-29T07:52:55.835Z,0.57
2022-07-29T07:57:57.511Z,0.52
2022-07-29T08:02:59.339Z,0.40
2022-07-29T08:08:01.018Z,0.55
2022-07-29T08:13:07.095Z,0.50
2022-07-29T08:18:09.081Z,0.40
2022-07-29T08:23:10.807Z,0.50
2022-07-29T08:28:12.559Z,0.60
2022-07-29T08:33:14.298Z,0.52
2022-07-29T08:38:15.972Z,0.50
2022-07-29T08:43:17.596Z,0.60
2022-07-29T08:48:21.125Z,0.52
2022-07-29T08:53:27.283Z,0.50
2022-07-29T08:58:36.758Z,0.70
2022-07-29T09:03:40.739Z,0.40
2022-07-29T09:08:42.707Z,0.65
2022-07-29T09:13:45.564Z,0.50
2022-07-29T09:18:47.690Z,0.55
2022-07-29T09:24:08.029Z,0.50
2022-07-29T09:29:15.436Z,0.60
2022-07-29T09:34:26.082Z,0.68
2022-07-29T09:39:36.055Z,0.60
2022-07-29T09:44:51.603Z,0.50
2022-07-29T09:50:00.311Z,0.50
2022-07-29T09:55:09.936Z,0.50
2022-07-29T10:00:18.947Z,0.80
2022-07-29T10:05:25.709Z,0.57
2022-07-29T10:10:29.533Z,0.50
2022-07-29T10:15:33.987Z,0.40
2022-07-29T10:20:36.629Z,0.68
2022-07-29T10:25:38.288Z,0.60
2022-07-29T10:30:41.336Z,0.60
2022-07-29T10:36:24.490Z,0.50
2022-07-29T10:42:01.946Z,0.63
2022-07-29T10:47:05.609Z,0.47
2022-07-29T10:52:10.233Z,0.55
2022-07-29T10:57:21.644Z,0.47
2022-07-29T11:02:41.112Z,0.60
2022-07-29T11:08:26.492Z,0.50
2022-07-29T11:13:44.848Z,0.50
2022-07-29T11:19:29.842Z,0.50
2022-07-29T11:24:33.380Z,0.60
2022-07-29T11:29:53.513Z,0.57
2022-07-29T11:35:16.673Z,0.55
2022-07-29T11:40:21.515Z,0.70
2022-07-29T11:45:42.004Z,0.68
2022-07-29T11:50:48.259Z,0.50
2022-07-29T11:55:56.223Z,0.50
2022-07-29T12:01:04.141Z,0.55
2022-07-29T12:06:17.583Z,0.60
2022-07-29T12:11:22.680Z,0.70
2022-07-29T12:16:38.247Z,0.68
2022-07-29T12:21:53.619Z,0.60
2022-07-29T12:26:59.771Z,0.60
2022-07-29T12:32:02.068Z,0.45
2022-07-29T12:37:04.755Z,0.50
2022-07-29T12:42:18.741Z,0.60
2022-07-29T12:47:21.790Z,0.50
2022-07-29T12:52:31.443Z,0.60
2022-07-29T12:57:33.757Z,0.50
2022-07-29T13:02:35.961Z,0.55
2022-07-29T13:07:55.464Z,1.35
2022-07-29T13:13:11.023Z,0.70
2022-07-29T13:18:32.968Z,0.75
2022-07-29T13:23:38.354Z,0.50
2022-07-29T13:28:40.861Z,0.68
2022-07-29T13:33:45.972Z,0.70
2022-07-29T13:38:47.632Z,0.60
2022-07-29T13:43:50.091Z,0.57
2022-07-29T13:48:52.141Z,0.88
2022-07-29T13:53:53.804Z,0.70
2022-07-29T13:58:55.457Z,0.80
2022-07-29T14:03:57.117Z,0.85
2022-07-29T14:08:58.786Z,0.88
2022-07-29T14:14:00.435Z,0.73
2022-07-29T14:19:02.284Z,0.40
2022-07-29T14:24:04.244Z,0.60
2022-07-29T14:29:18.780Z,0.50
2022-07-29T14:34:20.464Z,0.45
2022-07-29T14:39:24.024Z,0.70
2022-07-29T14:44:30.702Z,0.68
2022-07-29T14:49:32.322Z,0.90
2022-07-29T14:54:33.980Z,0.80
2022-07-29T14:59:35.822Z,1.00
2022-07-29T15:04:37.535Z,0.93
2022-07-29T15:09:40.224Z,0.68
2022-07-29T15:14:51.329Z,0.50
2022-07-29T15:19:53.126Z,0.50
2022-07-29T15:24:54.768Z,0.40
2022-07-29T15:29:56.379Z,0.52
2022-07-29T15:34:58.033Z,0.40
2022-07-29T15:40:00.214Z,0.50
2022-07-29T15:45:03.828Z,0.52
2022-07-29T15:50:07.319Z,0.60
2022-07-29T15:55:10.128Z,0.65
2022-07-29T16:00:12.460Z,0.70
2022-07-29T16:05:14.239Z,0.60
2022-07-29T16:10:15.936Z,0.73
2022-07-29T16:15:17.649Z,0.60
2022-07-29T16:20:20.774Z,0.82
2022-07-29T16:25:38.313Z,0.57
2022-07-29T16:30:45.580Z,0.52
2022-07-29T16:35:47.217Z,0.80
2022-07-29T16:40:48.901Z,0.90
2022-07-29T16:45:50.697Z,1.25
2022-07-29T16:50:52.465Z,0.90
2022-07-29T16:55:54.535Z,1.48
2022-07-29T17:00:56.351Z,1.45
2022-07-29T17:05:58.023Z,1.67
2022-07-29T17:10:59.670Z,1.55
2022-07-29T17:16:01.434Z,1.40
2022-07-29T17:21:03.188Z,2.05
2022-07-29T17:26:04.850Z,1.70
2022-07-29T17:31:06.651Z,1.10
2022-07-29T17:36:23.607Z,1.10
2022-07-29T17:41:25.875Z,1.42
2022-07-29T17:46:27.941Z,1.48
2022-07-29T17:51:29.633Z,1.27
2022-07-29T17:56:31.263Z,1.42
2022-07-29T18:01:33.632Z,1.13
2022-07-29T18:06:35.352Z,1.33
2022-07-29T18:11:37.007Z,1.02
2022-07-29T18:16:40.763Z,1.00
2022-07-29T18:21:51.835Z,1.55
2022-07-29T18:26:57.119Z,0.90
2022-07-29T18:31:59.816Z,0.88
2022-07-29T18:37:01.725Z,1.02
2022-07-29T18:42:04.091Z,1.13
2022-07-29T18:47:05.796Z,1.17
2022-07-29T18:52:08.172Z,1.30
2022-07-29T18:57:54.335Z,0.75
2022-07-29T19:02:31.689Z,0.80
2022-07-29T19:07:34.014Z,1.23
2022-07-29T19:12:35.665Z,1.13
2022-07-29T19:17:37.933Z,1.38
2022-07-29T19:22:39.582Z,1.20
2022-07-29T19:27:41.353Z,1.45
2022-07-29T19:32:43.081Z,1.50
2022-07-29T19:37:44.752Z,1.27
2022-07-29T19:42:48.118Z,1.10
2022-07-29T19:47:49.754Z,1.10
2022-07-29T19:52:52.567Z,0.98
2022-07-29T19:57:54.424Z,1.10
2022-07-29T20:02:57.362Z,1.20
2022-07-29T20:07:59.249Z,1.10
2022-07-29T20:13:01.086Z,1.02
2022-07-29T20:18:02.940Z,0.90
2022-07-29T20:23:04.689Z,1.00
2022-07-29T20:28:07.478Z,1.02
2022-07-29T20:33:09.115Z,1.30
2022-07-29T20:38:13.873Z,0.93
2022-07-29T20:43:18.020Z,1.30
2022-07-29T20:48:19.860Z,0.90
2022-07-29T20:53:21.895Z,1.30
2022-07-29T20:58:23.512Z,1.58
2022-07-29T21:03:25.170Z,0.98
2022-07-29T21:08:27.182Z,0.90
2022-07-29T21:13:29.067Z,0.80
2022-07-29T21:18:32.401Z,1.20
2022-07-29T21:23:35.243Z,0.95
2022-07-29T21:28:39.988Z,1.35
2022-07-29T21:33:44.239Z,1.00
2022-07-29T21:38:45.882Z,0.90
2022-07-29T21:43:47.573Z,1.05
2022-07-29T21:48:49.288Z,1.73
2022-07-29T21:53:53.054Z,1.13
2022-07-29T21:58:55.528Z,1.52
2022-07-29T22:03:57.294Z,1.67
2022-07-29T22:08:58.964Z,1.38
2022-07-29T22:14:00.645Z,1.42
2022-07-29T22:19:03.740Z,2.50
2022-07-29T22:24:05.744Z,1.70
2022-07-29T22:29:07.468Z,1.92
2022-07-29T22:34:12.668Z,1.77
2022-07-29T22:39:15.627Z,1.58
2022-07-29T22:44:18.070Z,1.30
2022-07-29T22:49:20.356Z,1.33
2022-07-29T22:54:22.106Z,1.67
2022-07-29T22:59:23.790Z,1.30
2022-07-29T23:04:25.528Z,1.92
2022-07-29T23:09:27.239Z,2.10
2022-07-29T23:14:28.905Z,2.35
2022-07-29T23:19:30.661Z,1.65
2022-07-29T23:24:32.310Z,1.98
2022-07-29T23:29:36.754Z,1.63
2022-07-29T23:34:38.674Z,2.00
2022-07-29T23:39:40.324Z,1.73
2022-07-29T23:44:41.953Z,1.98
2022-07-29T23:49:43.910Z,1.70
2022-07-29T23:54:45.556Z,2.15
2022-07-29T23:59:47.196Z,1.35
